createdAt,value
2023-03-27T00:00:13.262Z,2.90
2023-03-27T00:01:13.306Z,2.40
2023-03-27T00:02:13.172Z,2.50
2023-03-27T00:03:13.165Z,2.50
2023-03-27T00:04:13.194Z,2.60
2023-03-27T00:05:14.076Z,2.40
2023-03-27T00:06:13.083Z,2.60
2023-03-27T00:07:13.080Z,2.60
2023-03-27T00:08:13.081Z,2.60
2023-03-27T00:09:12.974Z,2.40
2023-03-27T00:10:13.050Z,2.70
2023-03-27T00:11:12.967Z,2.50
2023-03-27T00:12:13.508Z,2.60
2023-03-27T00:13:12.936Z,2.60
2023-03-27T00:14:12.912Z,2.50
2023-03-27T00:15:12.917Z,2.50
2023-03-27T00:16:12.971Z,3.20
2023-03-27T00:17:12.890Z,2.70
2023-03-27T00:18:12.865Z,2.50
2023-03-27T00:19:12.852Z,2.80
2023-03-27T00:20:12.867Z,2.70
2023-03-27T00:21:12.852Z,2.80
2023-03-27T00:22:12.884Z,2.50
2023-03-27T00:23:12.844Z,2.50
2023-03-27T00:24:12.827Z,2.50
2023-03-27T00:25:12.772Z,2.20
2023-03-27T00:26:12.792Z,2.80
2023-03-27T00:27:12.793Z,2.70
2023-03-27T00:28:12.778Z,2.30
2023-03-27T00:29:12.759Z,2.40
2023-03-27T00:30:12.791Z,2.60
2023-03-27T00:31:12.893Z,2.80
2023-03-27T00:32:12.745Z,2.40
2023-03-27T00:33:12.706Z,2.60
2023-03-27T00:34:12.707Z,2.50
2023-03-27T00:35:12.684Z,2.60
2023-03-27T00:36:12.684Z,2.50
2023-03-27T00:37:12.688Z,2.50
2023-03-27T00:38:12.664Z,2.60
2023-03-27T00:39:12.698Z,2.50
2023-03-27T00:40:12.647Z,2.90
2023-03-27T00:41:12.820Z,2.40
2023-03-27T00:42:12.628Z,2.40
2023-03-27T00:43:12.592Z,2.60
2023-03-27T00:44:12.624Z,2.70
2023-03-27T00:45:12.577Z,2.50
2023-03-27T00:46:12.645Z,2.70
2023-03-27T00:47:12.556Z,2.80
2023-03-27T00:48:12.556Z,2.50
2023-03-27T00:49:12.570Z,2.50
2023-03-27T00:50:12.558Z,2.00
2023-03-27T00:51:13.437Z,2.40
2023-03-27T00:52:12.571Z,2.90
2023-03-27T00:53:12.530Z,2.50
2023-03-27T00:54:12.497Z,2.30
2023-03-27T00:55:12.471Z,2.80
2023-03-27T00:56:12.490Z,2.40
2023-03-27T00:57:12.514Z,2.90
2023-03-27T00:58:12.472Z,2.60
2023-03-27T00:59:12.442Z,2.30
2023-03-27T01:00:12.429Z,2.80
2023-03-27T01:01:12.468Z,2.40
2023-03-27T01:02:12.500Z,2.70
2023-03-27T01:03:12.545Z,2.70
2023-03-27T01:04:13.369Z,3.10
2023-03-27T01:05:12.450Z,2.40
2023-03-27T01:06:12.421Z,2.20
2023-03-27T01:07:12.327Z,2.40
2023-03-27T01:08:12.709Z,2.70
2023-03-27T01:09:20.175Z,2.40
2023-03-27T01:10:17.769Z,2.40
2023-03-27T01:11:14.794Z,2.70
2023-03-27T01:12:12.259Z,2.30
2023-03-27T01:13:12.299Z,2.30
2023-03-27T01:14:12.259Z,2.50
2023-03-27T01:15:12.290Z,2.60
2023-03-27T01:16:12.356Z,2.80
2023-03-27T01:17:12.248Z,2.40
2023-03-27T01:18:12.197Z,2.40
2023-03-27T01:19:12.231Z,2.80
2023-03-27T01:20:12.275Z,2.50
2023-03-27T01:21:12.214Z,2.30
2023-03-27T01:22:12.199Z,2.30
2023-03-27T01:23:12.145Z,2.10
2023-03-27T01:24:12.171Z,2.50
2023-03-27T01:25:12.172Z,2.20
2023-03-27T01:26:12.160Z,2.80
2023-03-27T01:27:12.161Z,2.10
2023-03-27T01:28:12.345Z,2.20
2023-03-27T01:29:12.127Z,2.50
2023-03-27T01:30:12.108Z,2.40
2023-03-27T01:31:12.194Z,2.10
2023-03-27T01:32:12.080Z,2.20
2023-03-27T01:33:12.061Z,2.10
2023-03-27T01:34:12.059Z,2.60
2023-03-27T01:35:12.022Z,2.50
2023-03-27T01:36:12.026Z,2.60
2023-03-27T01:37:11.989Z,2.00
2023-03-27T01:38:12.056Z,2.50
2023-03-27T01:39:12.046Z,2.40
2023-03-27T01:40:11.996Z,2.40
2023-03-27T01:41:11.992Z,2.20
2023-03-27T01:42:12.469Z,2.30
2023-03-27T01:43:12.860Z,2.30
2023-03-27T01:44:11.955Z,2.30
2023-03-27T01:45:11.928Z,2.10
2023-03-27T01:46:11.980Z,2.40
2023-03-27T01:47:11.924Z,2.20
2023-03-27T01:48:11.908Z,2.30
2023-03-27T01:49:12.052Z,2.10
2023-03-27T01:50:11.907Z,2.30
2023-03-27T01:51:11.884Z,2.30
2023-03-27T01:52:12.355Z,2.20
2023-03-27T01:53:12.104Z,2.10
2023-03-27T01:54:11.811Z,2.20
2023-03-27T01:55:11.892Z,2.70
2023-03-27T01:56:11.801Z,2.40
2023-03-27T01:57:11.927Z,2.00
2023-03-27T01:58:11.832Z,2.30
2023-03-27T01:59:11.797Z,2.40
2023-03-27T02:00:18.206Z,2.40
2023-03-27T02:01:12.743Z,2.00
2023-03-27T02:02:11.773Z,2.50
2023-03-27T02:03:11.692Z,2.60
2023-03-27T02:04:11.685Z,2.70
2023-03-27T02:05:11.806Z,2.20
2023-03-27T02:06:11.847Z,2.30
2023-03-27T02:07:11.670Z,2.40
2023-03-27T02:08:11.659Z,2.50
2023-03-27T02:09:11.666Z,2.30
2023-03-27T02:10:11.628Z,2.10
2023-03-27T02:11:11.794Z,2.20
2023-03-27T02:12:11.620Z,2.20
2023-03-27T02:13:11.604Z,2.10
2023-03-27T02:14:11.585Z,2.50
2023-03-27T02:15:23.627Z,2.40
2023-03-27T02:16:12.584Z,2.40
2023-03-27T02:17:12.028Z,2.20
2023-03-27T02:18:11.595Z,2.40
2023-03-27T02:19:11.534Z,2.40
2023-03-27T02:20:11.556Z,2.10
2023-03-27T02:21:11.517Z,2.20
2023-03-27T02:22:11.533Z,2.80
2023-03-27T02:23:11.485Z,2.20
2023-03-27T02:24:11.491Z,2.30
2023-03-27T02:25:11.487Z,2.30
2023-03-27T02:26:11.470Z,2.50
2023-03-27T02:27:11.474Z,2.20
2023-03-27T02:28:11.459Z,2.20
2023-03-27T02:29:11.493Z,2.70
2023-03-27T02:30:11.437Z,2.30
2023-03-27T02:31:32.141Z,2.20
2023-03-27T02:32:12.459Z,2.30
2023-03-27T02:33:12.480Z,2.20
2023-03-27T02:34:11.429Z,2.10
2023-03-27T02:35:11.471Z,2.10
2023-03-27T02:36:11.427Z,2.30
2023-03-27T02:37:11.458Z,2.30
2023-03-27T02:38:11.356Z,2.30
2023-03-27T02:39:11.352Z,2.30
2023-03-27T02:40:11.354Z,2.10
2023-03-27T02:41:11.345Z,2.20
2023-03-27T02:42:11.297Z,2.50
2023-03-27T02:43:11.314Z,2.60
2023-03-27T02:44:11.306Z,2.30
2023-03-27T02:45:11.297Z,2.30
2023-03-27T02:46:11.324Z,2.90
2023-03-27T02:47:11.232Z,2.30
2023-03-27T02:48:12.346Z,2.20
2023-03-27T02:49:11.226Z,2.10
2023-03-27T02:50:11.210Z,2.50
2023-03-27T02:51:11.231Z,2.20
2023-03-27T02:52:11.193Z,2.20
2023-03-27T02:53:11.217Z,2.60
2023-03-27T02:54:11.198Z,2.30
2023-03-27T02:55:11.186Z,2.20
2023-03-27T02:56:11.168Z,2.60
2023-03-27T02:57:11.186Z,2.30
2023-03-27T02:58:11.180Z,2.20
2023-03-27T02:59:11.110Z,2.70
2023-03-27T03:00:11.213Z,2.30
2023-03-27T03:01:11.189Z,2.40
2023-03-27T03:02:11.121Z,2.00
2023-03-27T03:03:11.386Z,2.30
2023-03-27T03:04:11.100Z,2.10
2023-03-27T03:05:11.099Z,2.30
2023-03-27T03:06:11.118Z,2.40
2023-03-27T03:07:11.069Z,2.40
2023-03-27T03:08:11.004Z,2.00
2023-03-27T03:09:11.020Z,2.10
2023-03-27T03:10:11.002Z,2.20
2023-03-27T03:11:10.999Z,2.40
2023-03-27T03:12:11.032Z,2.40
2023-03-27T03:13:10.963Z,2.10
2023-03-27T03:14:11.018Z,2.40
2023-03-27T03:15:11.004Z,2.20
2023-03-27T03:16:11.099Z,2.20
2023-03-27T03:17:10.948Z,2.30
2023-03-27T03:18:11.029Z,2.20
2023-03-27T03:19:10.950Z,2.50
2023-03-27T03:20:10.925Z,2.40
2023-03-27T03:21:10.878Z,2.40
2023-03-27T03:22:10.887Z,2.20
2023-03-27T03:23:10.895Z,2.20
2023-03-27T03:24:10.906Z,2.30
2023-03-27T03:25:10.845Z,2.30
2023-03-27T03:26:10.884Z,2.00
2023-03-27T03:27:10.833Z,2.00
2023-03-27T03:28:10.822Z,1.70
2023-03-27T03:29:12.798Z,2.00
2023-03-27T03:30:10.810Z,2.40
2023-03-27T03:31:11.839Z,2.30
2023-03-27T03:32:10.779Z,2.20
2023-03-27T03:33:11.348Z,2.10
2023-03-27T03:34:10.828Z,2.30
2023-03-27T03:35:10.751Z,2.50
2023-03-27T03:36:10.822Z,2.40
2023-03-27T03:37:10.791Z,2.00
2023-03-27T03:38:10.701Z,2.10
2023-03-27T03:39:10.712Z,2.30
2023-03-27T03:40:10.691Z,2.10
2023-03-27T03:41:10.698Z,1.90
2023-03-27T03:42:10.680Z,2.00
2023-03-27T03:43:12.325Z,2.00
2023-03-27T03:44:10.653Z,2.20
2023-03-27T03:45:11.432Z,1.90
2023-03-27T03:46:10.731Z,2.30
2023-03-27T03:47:10.657Z,2.10
2023-03-27T03:48:10.606Z,2.10
2023-03-27T03:49:10.655Z,1.90
2023-03-27T03:50:10.620Z,2.10
2023-03-27T03:51:10.568Z,2.10
2023-03-27T03:52:10.565Z,1.90
2023-03-27T03:53:10.574Z,2.00
2023-03-27T03:54:10.561Z,2.30
2023-03-27T03:55:10.541Z,2.10
2023-03-27T03:56:10.547Z,2.10
2023-03-27T03:57:10.608Z,1.90
2023-03-27T03:58:10.528Z,2.20
2023-03-27T03:59:10.498Z,2.20
2023-03-27T04:00:10.507Z,2.00
2023-03-27T04:01:11.261Z,2.20
2023-03-27T04:02:10.546Z,2.00
2023-03-27T04:03:10.549Z,2.10
2023-03-27T04:04:10.473Z,2.00
2023-03-27T04:05:10.690Z,2.30
2023-03-27T04:06:10.428Z,2.00
2023-03-27T04:07:10.413Z,2.30
2023-03-27T04:08:10.416Z,2.30
2023-03-27T04:09:10.417Z,2.40
2023-03-27T04:10:10.398Z,2.30
2023-03-27T04:11:10.382Z,2.60
2023-03-27T04:12:10.372Z,2.40
2023-03-27T04:13:10.376Z,2.60
2023-03-27T04:14:10.340Z,2.40
2023-03-27T04:15:10.360Z,2.80
2023-03-27T04:16:10.397Z,2.80
2023-03-27T04:17:10.303Z,2.60
2023-03-27T04:18:10.352Z,2.50
2023-03-27T04:19:10.309Z,2.60
2023-03-27T04:20:10.286Z,2.70
2023-03-27T04:21:10.280Z,2.80
2023-03-27T04:22:10.221Z,3.10
2023-03-27T04:23:10.259Z,2.80
2023-03-27T04:24:10.236Z,2.70
2023-03-27T04:25:10.306Z,2.90
2023-03-27T04:26:10.230Z,2.70
2023-03-27T04:27:10.193Z,2.50
2023-03-27T04:28:10.195Z,2.50
2023-03-27T04:29:10.214Z,2.80
2023-03-27T04:30:10.205Z,2.70
2023-03-27T04:31:10.172Z,2.70
2023-03-27T04:32:10.908Z,2.30
2023-03-27T04:33:10.161Z,2.50
2023-03-27T04:34:10.128Z,2.50
2023-03-27T04:35:11.978Z,2.80
2023-03-27T04:36:10.149Z,2.30
2023-03-27T04:37:10.075Z,2.40
2023-03-27T04:38:10.103Z,2.40
2023-03-27T04:39:10.066Z,2.60
2023-03-27T04:40:10.071Z,2.70
2023-03-27T04:41:10.074Z,2.40
2023-03-27T04:42:10.072Z,2.40
2023-03-27T04:43:10.036Z,2.80
2023-03-27T04:44:10.039Z,2.80
2023-03-27T04:45:09.992Z,2.90
2023-03-27T04:46:10.035Z,2.60
2023-03-27T04:47:10.034Z,2.80
2023-03-27T04:48:10.090Z,2.80
2023-03-27T04:49:09.982Z,3.00
2023-03-27T04:50:09.957Z,2.50
2023-03-27T04:51:09.946Z,2.60
2023-03-27T04:52:09.974Z,3.00
2023-03-27T04:53:09.948Z,2.70
2023-03-27T04:54:10.078Z,2.90
2023-03-27T04:55:09.882Z,2.70
2023-03-27T04:56:09.937Z,2.90
2023-03-27T04:57:10.007Z,3.00
2023-03-27T04:58:09.878Z,2.90
2023-03-27T04:59:09.960Z,3.10
2023-03-27T05:00:09.841Z,3.20
2023-03-27T05:01:09.971Z,2.90
2023-03-27T05:02:09.899Z,2.80
2023-03-27T05:03:09.880Z,2.80
2023-03-27T05:04:09.814Z,2.70
2023-03-27T05:05:09.868Z,2.90
2023-03-27T05:06:09.805Z,3.10
2023-03-27T05:07:09.789Z,3.10
2023-03-27T05:08:10.326Z,2.80
2023-03-27T05:09:10.435Z,3.20
2023-03-27T05:10:09.745Z,3.80
2023-03-27T05:11:09.758Z,3.50
2023-03-27T05:12:09.751Z,3.00
2023-03-27T05:13:09.747Z,3.00
2023-03-27T05:14:09.694Z,3.10
2023-03-27T05:15:09.744Z,2.90
2023-03-27T05:16:09.698Z,3.20
2023-03-27T05:17:09.710Z,3.00
2023-03-27T05:18:09.745Z,3.30
2023-03-27T05:19:09.674Z,3.50
2023-03-27T05:20:09.686Z,3.50
2023-03-27T05:21:09.643Z,3.50
2023-03-27T05:22:09.651Z,3.00
2023-03-27T05:23:09.647Z,3.40
2023-03-27T05:24:09.627Z,3.20
2023-03-27T05:25:09.705Z,3.20
2023-03-27T05:26:09.755Z,3.10
2023-03-27T05:27:09.595Z,3.30
2023-03-27T05:28:10.588Z,3.30
2023-03-27T05:29:09.548Z,3.40
2023-03-27T05:30:09.499Z,3.30
2023-03-27T05:31:09.572Z,2.90
2023-03-27T05:32:09.513Z,2.90
2023-03-27T05:33:09.533Z,3.20
2023-03-27T05:34:09.491Z,3.40
2023-03-27T05:35:10.378Z,3.10
2023-03-27T05:36:09.492Z,3.30
2023-03-27T05:37:09.472Z,3.40
2023-03-27T05:38:09.436Z,3.60
2023-03-27T05:39:09.483Z,3.40
2023-03-27T05:40:09.472Z,3.20
2023-03-27T05:41:09.446Z,3.00
2023-03-27T05:42:09.397Z,3.10
2023-03-27T05:43:09.389Z,3.20
2023-03-27T05:44:09.356Z,3.70
2023-03-27T05:45:09.415Z,3.10
2023-03-27T05:46:09.425Z,3.50
2023-03-27T05:47:09.395Z,3.40
2023-03-27T05:48:09.399Z,3.20
2023-03-27T05:49:09.338Z,3.60
2023-03-27T05:50:09.361Z,3.50
2023-03-27T05:51:09.300Z,3.50
2023-03-27T05:52:09.339Z,3.20
2023-03-27T05:53:09.317Z,3.50
2023-03-27T05:54:09.302Z,3.50
2023-03-27T05:55:09.270Z,3.30
2023-03-27T05:56:09.279Z,3.30
2023-03-27T05:57:09.321Z,3.20
2023-03-27T05:58:09.241Z,3.10
2023-03-27T05:59:09.217Z,2.90
2023-03-27T06:00:09.249Z,3.30
2023-03-27T06:01:09.190Z,3.60
2023-03-27T06:02:09.221Z,3.20
2023-03-27T06:03:09.421Z,3.40
2023-03-27T06:04:09.470Z,3.30
2023-03-27T06:05:09.167Z,3.70
2023-03-27T06:06:09.142Z,3.20
2023-03-27T06:07:09.138Z,3.30
2023-03-27T06:08:09.153Z,3.20
2023-03-27T06:09:09.192Z,3.20
2023-03-27T06:10:13.844Z,3.70
2023-03-27T06:11:10.096Z,3.50
2023-03-27T06:12:09.048Z,3.50
2023-03-27T06:13:09.087Z,3.60
2023-03-27T06:14:09.098Z,3.60
2023-03-27T06:15:09.042Z,3.90
2023-03-27T06:16:09.087Z,5.20
2023-03-27T06:17:09.036Z,4.10
2023-03-27T06:18:09.058Z,4.20
2023-03-27T06:19:09.017Z,4.40
2023-03-27T06:20:09.025Z,4.20
2023-03-27T06:21:09.087Z,4.60
2023-03-27T06:22:09.393Z,4.20
2023-03-27T06:23:10.234Z,4.20
2023-03-27T06:24:11.422Z,3.80
2023-03-27T06:25:25.399Z,3.70
2023-03-27T06:26:09.323Z,3.50
2023-03-27T06:27:10.774Z,3.60
2023-03-27T06:28:10.123Z,3.80
2023-03-27T06:29:17.628Z,3.30
2023-03-27T06:30:09.248Z,3.10
2023-03-27T06:31:09.837Z,3.40
2023-03-27T06:32:09.228Z,3.60
2023-03-27T06:33:08.882Z,3.70
2023-03-27T06:34:08.958Z,3.30
2023-03-27T06:35:09.069Z,4.10
2023-03-27T06:36:09.306Z,3.40
2023-03-27T06:37:09.086Z,3.30
2023-03-27T06:38:08.927Z,3.20
2023-03-27T06:39:08.824Z,3.40
2023-03-27T06:40:08.873Z,3.40
2023-03-27T06:41:08.866Z,3.30
2023-03-27T06:42:08.816Z,3.90
2023-03-27T06:43:08.805Z,3.50
2023-03-27T06:44:08.894Z,4.00
2023-03-27T06:45:08.758Z,3.60
2023-03-27T06:46:10.054Z,3.50
2023-03-27T06:47:09.266Z,3.30
2023-03-27T06:50:13.506Z,3.40
2023-03-27T06:50:16.957Z,3.60
2023-03-27T06:51:16.554Z,3.70
2023-03-27T06:52:16.524Z,3.30
2023-03-27T06:53:26.454Z,4.80
2023-03-27T06:54:19.406Z,5.80
2023-03-27T06:55:16.464Z,5.20
2023-03-27T06:56:16.639Z,4.70
2023-03-27T06:57:16.448Z,4.00
2023-03-27T06:58:16.655Z,5.00
2023-03-27T06:59:16.817Z,4.40
2023-03-27T07:00:17.032Z,4.30
2023-03-27T07:01:16.380Z,4.10
2023-03-27T07:02:16.390Z,3.70
2023-03-27T07:03:17.520Z,3.60
2023-03-27T07:04:16.220Z,3.30
2023-03-27T07:05:16.612Z,3.30
2023-03-27T07:06:16.428Z,3.40
2023-03-27T07:07:16.232Z,4.00
2023-03-27T07:09:17.255Z,3.60
2023-03-27T07:10:16.256Z,3.90
2023-03-27T07:11:16.285Z,3.70
2023-03-27T07:12:16.323Z,3.50
2023-03-27T07:13:16.320Z,3.50
2023-03-27T07:14:16.151Z,3.70
2023-03-27T07:15:16.110Z,3.40
2023-03-27T07:16:16.162Z,3.30
2023-03-27T07:17:16.117Z,3.00
2023-03-27T07:18:16.206Z,3.30
2023-03-27T07:19:16.102Z,3.50
2023-03-27T07:20:16.045Z,3.90
2023-03-27T07:21:16.037Z,3.70
2023-03-27T07:22:16.017Z,4.40
2023-03-27T07:23:15.994Z,4.90
2023-03-27T07:24:16.112Z,4.70
2023-03-27T07:25:15.972Z,4.10
2023-03-27T07:26:15.946Z,3.60
2023-03-27T07:27:15.941Z,3.50
2023-03-27T07:28:15.977Z,3.70
2023-03-27T07:29:15.917Z,3.80
2023-03-27T07:30:15.987Z,4.00
2023-03-27T07:31:29.856Z,4.30
2023-03-27T07:32:29.725Z,3.80
2023-03-27T07:33:18.008Z,3.70
2023-03-27T07:34:15.914Z,3.80
2023-03-27T07:35:15.876Z,3.80
2023-03-27T07:36:15.892Z,3.60
2023-03-27T07:37:15.841Z,3.70
2023-03-27T07:38:15.844Z,3.80
2023-03-27T07:39:15.810Z,3.90
2023-03-27T07:40:16.589Z,4.00
2023-03-27T07:41:15.812Z,3.90
2023-03-27T07:42:15.815Z,3.70
2023-03-27T07:43:15.815Z,3.50
2023-03-27T07:44:15.786Z,4.20
2023-03-27T07:45:15.740Z,3.70
2023-03-27T07:46:15.831Z,4.40
2023-03-27T07:47:16.293Z,4.70
2023-03-27T07:48:15.741Z,4.00
2023-03-27T07:49:15.684Z,4.00
2023-03-27T07:50:16.426Z,4.20
2023-03-27T07:51:15.704Z,4.00
2023-03-27T07:52:16.595Z,4.30
2023-03-27T07:53:33.218Z,4.80
2023-03-27T07:54:16.673Z,3.90
2023-03-27T07:55:15.624Z,4.30
2023-03-27T07:56:15.630Z,4.40
2023-03-27T07:57:15.726Z,3.50
2023-03-27T07:58:15.706Z,3.80
2023-03-27T07:59:15.620Z,4.00
2023-03-27T08:00:15.588Z,4.00
2023-03-27T08:01:15.618Z,3.90
2023-03-27T08:02:15.549Z,3.70
2023-03-27T08:03:16.753Z,4.10
2023-03-27T08:04:15.708Z,4.20
2023-03-27T08:05:15.510Z,4.10
2023-03-27T08:06:15.609Z,4.30
2023-03-27T08:07:15.790Z,4.20
2023-03-27T08:08:15.492Z,4.00
2023-03-27T08:09:15.529Z,3.70
2023-03-27T08:10:15.504Z,3.70
2023-03-27T08:11:27.218Z,4.10
2023-03-27T08:12:17.513Z,3.50
2023-03-27T08:13:15.454Z,3.60
2023-03-27T08:14:15.459Z,3.50
2023-03-27T08:15:15.416Z,3.80
2023-03-27T08:16:15.442Z,3.30
2023-03-27T08:17:16.687Z,3.40
2023-03-27T08:18:16.445Z,3.70
2023-03-27T08:19:15.390Z,3.30
2023-03-27T08:20:15.481Z,3.40
2023-03-27T08:21:15.370Z,3.00
2023-03-27T08:22:15.378Z,3.30
2023-03-27T08:23:15.343Z,3.20
2023-03-27T08:24:15.341Z,3.20
2023-03-27T08:25:15.310Z,3.40
2023-03-27T08:26:15.352Z,3.40
2023-03-27T08:27:15.311Z,3.80
2023-03-27T08:28:15.328Z,3.50
2023-03-27T08:29:15.322Z,2.90
2023-03-27T08:30:16.695Z,3.20
2023-03-27T08:31:15.946Z,3.10
2023-03-27T08:32:15.311Z,3.10
2023-03-27T08:33:15.246Z,2.90
2023-03-27T08:34:15.225Z,3.10
2023-03-27T08:35:15.220Z,2.80
2023-03-27T08:36:15.256Z,2.80
2023-03-27T08:37:15.179Z,3.00
2023-03-27T08:38:26.027Z,2.80
2023-03-27T08:39:17.178Z,2.50
2023-03-27T08:40:15.244Z,2.80
2023-03-27T08:41:15.152Z,2.70
2023-03-27T08:42:15.832Z,2.50
2023-03-27T08:43:15.139Z,2.40
2023-03-27T08:44:15.197Z,2.70
2023-03-27T08:45:15.138Z,2.70
2023-03-27T08:46:15.099Z,2.80
2023-03-27T08:47:15.107Z,2.50
2023-03-27T08:48:15.069Z,2.70
2023-03-27T08:49:15.116Z,3.00
2023-03-27T08:50:15.011Z,2.80
2023-03-27T08:51:15.074Z,2.90
2023-03-27T08:52:15.100Z,2.80
2023-03-27T08:53:14.982Z,2.80
2023-03-27T08:54:16.060Z,2.90
2023-03-27T08:55:14.976Z,2.50
2023-03-27T08:56:14.975Z,2.70
2023-03-27T08:57:14.980Z,2.60
2023-03-27T08:58:14.963Z,2.80
2023-03-27T08:59:17.189Z,2.70
2023-03-27T09:00:16.035Z,2.70
2023-03-27T09:01:14.979Z,2.60
2023-03-27T09:02:14.932Z,2.60
2023-03-27T09:03:15.007Z,2.40
2023-03-27T09:04:14.900Z,2.90
2023-03-27T09:05:14.900Z,2.20
2023-03-27T09:06:14.883Z,2.80
2023-03-27T09:07:14.841Z,2.40
2023-03-27T09:08:14.908Z,2.60
2023-03-27T09:09:14.805Z,2.40
2023-03-27T09:10:14.829Z,2.40
2023-03-27T09:11:14.771Z,2.40
2023-03-27T09:12:14.757Z,2.30
2023-03-27T09:13:14.773Z,2.50
2023-03-27T09:14:15.392Z,2.50
2023-03-27T09:15:14.792Z,2.40
2023-03-27T09:16:14.719Z,2.80
2023-03-27T09:17:14.708Z,2.70
2023-03-27T09:18:14.683Z,3.30
2023-03-27T09:19:14.701Z,3.00
2023-03-27T09:20:14.709Z,3.10
2023-03-27T09:21:14.711Z,2.40
2023-03-27T09:22:14.660Z,2.90
2023-03-27T09:23:14.650Z,2.80
2023-03-27T09:24:14.643Z,2.60
2023-03-27T09:25:14.613Z,2.40
2023-03-27T09:26:15.281Z,2.60
2023-03-27T09:27:14.621Z,2.60
2023-03-27T09:28:14.593Z,2.60
2023-03-27T09:29:14.635Z,2.50
2023-03-27T09:30:15.592Z,2.70
2023-03-27T09:31:14.639Z,2.60
2023-03-27T09:32:14.634Z,2.60
2023-03-27T09:33:14.613Z,2.60
2023-03-27T09:34:14.534Z,2.50
2023-03-27T09:35:14.484Z,2.20
2023-03-27T09:36:14.491Z,2.40
2023-03-27T09:37:14.625Z,2.30
2023-03-27T09:38:15.414Z,2.30
2023-03-27T09:39:14.501Z,2.50
2023-03-27T09:40:14.472Z,2.30
2023-03-27T09:41:14.506Z,2.40
2023-03-27T09:42:14.455Z,2.60
2023-03-27T09:43:14.460Z,2.70
2023-03-27T09:44:14.697Z,2.80
2023-03-27T09:45:14.478Z,3.10
2023-03-27T09:46:14.527Z,2.50
2023-03-27T09:47:14.477Z,2.60
2023-03-27T09:48:14.377Z,2.90
2023-03-27T09:49:14.519Z,2.80
2023-03-27T09:50:14.442Z,3.30
2023-03-27T09:51:14.356Z,2.80
2023-03-27T09:52:14.378Z,3.70
2023-03-27T09:53:14.384Z,4.40
2023-03-27T09:54:14.425Z,9.20
2023-03-27T09:55:14.334Z,4.10
2023-03-27T09:56:14.368Z,3.40
2023-03-27T09:57:14.362Z,2.70
2023-03-27T09:58:14.305Z,2.60
2023-03-27T09:59:14.315Z,2.50
2023-03-27T10:00:14.319Z,2.70
2023-03-27T10:01:14.483Z,2.70
2023-03-27T10:02:14.347Z,2.60
2023-03-27T10:03:14.495Z,2.50
2023-03-27T10:04:14.233Z,2.60
2023-03-27T10:05:14.431Z,2.40
2023-03-27T10:06:14.208Z,2.80
2023-03-27T10:07:14.179Z,2.70
2023-03-27T10:08:14.296Z,3.20
2023-03-27T10:09:14.150Z,3.40
2023-03-27T10:10:14.201Z,3.50
2023-03-27T10:11:14.163Z,3.60
2023-03-27T10:12:14.124Z,2.80
2023-03-27T10:13:14.318Z,2.70
2023-03-27T10:14:14.110Z,3.30
2023-03-27T10:15:14.309Z,3.80
2023-03-27T10:16:14.134Z,3.50
2023-03-27T10:17:14.151Z,3.10
2023-03-27T10:18:14.105Z,3.00
2023-03-27T10:19:14.070Z,3.30
2023-03-27T10:20:14.113Z,3.40
2023-03-27T10:21:14.033Z,3.40
2023-03-27T10:22:14.046Z,2.70
2023-03-27T10:23:14.051Z,2.60
2023-03-27T10:24:13.954Z,2.50
2023-03-27T10:25:13.970Z,2.80
2023-03-27T10:26:14.102Z,2.40
2023-03-27T10:27:13.953Z,2.50
2023-03-27T10:28:13.911Z,2.90
2023-03-27T10:29:13.966Z,2.20
2023-03-27T10:30:13.927Z,3.30
2023-03-27T10:31:14.024Z,3.00
2023-03-27T10:32:14.061Z,2.40
2023-03-27T10:33:13.929Z,2.10
2023-03-27T10:34:13.857Z,2.40
2023-03-27T10:35:13.910Z,2.40
2023-03-27T10:36:13.843Z,2.40
2023-03-27T10:37:13.893Z,2.20
2023-03-27T10:38:13.917Z,2.50
2023-03-27T10:39:13.876Z,2.50
2023-03-27T10:40:13.975Z,2.40
2023-03-27T10:41:13.783Z,2.60
2023-03-27T10:42:13.838Z,2.80
2023-03-27T10:43:13.802Z,2.50
2023-03-27T10:44:14.316Z,3.00
2023-03-27T10:45:13.766Z,2.60
2023-03-27T10:46:13.852Z,2.50
2023-03-27T10:47:13.760Z,2.30
2023-03-27T10:51:06.465Z,2.40
2023-03-27T10:52:10.293Z,2.50
2023-03-27T10:53:06.842Z,2.40
2023-03-27T10:54:06.761Z,2.70
2023-03-27T10:55:06.839Z,2.70
2023-03-27T10:56:06.419Z,2.60
2023-03-27T10:58:38.072Z,2.30
2023-03-27T10:59:41.918Z,2.40
2023-03-27T11:00:37.886Z,2.40
2023-03-27T11:01:36.665Z,2.30
2023-03-27T11:02:37.332Z,2.20
2023-03-27T11:03:46.260Z,2.10
2023-03-27T11:04:36.826Z,2.20
2023-03-27T11:05:37.641Z,2.80
2023-03-27T11:06:37.074Z,2.30
2023-03-27T11:07:37.897Z,2.30
2023-03-27T11:08:38.109Z,2.40
2023-03-27T11:09:37.977Z,2.30
2023-03-27T11:10:38.038Z,2.40
2023-03-27T11:11:36.658Z,2.40
2023-03-27T11:12:37.254Z,2.30
2023-03-27T11:13:36.930Z,2.40
2023-03-27T11:14:36.572Z,2.50
2023-03-27T11:15:36.874Z,2.60
2023-03-27T11:16:36.984Z,2.60
2023-03-27T11:17:37.002Z,2.20
2023-03-27T11:20:00.566Z,2.40
2023-03-27T11:20:02.740Z,2.50
2023-03-27T11:21:02.842Z,2.40
2023-03-27T11:23:35.431Z,2.30
2023-03-27T11:24:35.282Z,2.40
2023-03-27T11:25:33.720Z,2.20
2023-03-27T11:26:34.274Z,2.20
2023-03-27T11:27:33.691Z,2.40
2023-03-27T11:28:33.803Z,2.30
2023-03-27T11:29:38.619Z,2.00
2023-03-27T11:30:33.854Z,2.20
2023-03-27T11:31:33.926Z,2.20
2023-03-27T11:32:34.464Z,2.20
2023-03-27T11:33:33.664Z,2.20
2023-03-27T11:34:33.711Z,2.00
2023-03-27T11:35:34.876Z,1.70
2023-03-27T11:36:37.611Z,1.70
2023-03-27T11:37:33.661Z,1.80
2023-03-27T11:38:34.005Z,1.80
2023-03-27T11:40:58.092Z,2.00
2023-03-27T11:42:22.339Z,2.20
2023-03-27T11:42:23.950Z,2.00
2023-03-27T11:43:25.523Z,2.00
2023-03-27T11:44:24.704Z,2.20
2023-03-27T11:45:34.178Z,2.10
2023-03-27T11:46:23.905Z,1.90
2023-03-27T11:48:55.565Z,2.90
2023-03-27T11:51:19.425Z,2.50
2023-03-27T11:51:22.173Z,2.00
2023-03-27T11:52:22.475Z,2.20
2023-03-27T11:53:22.688Z,2.00
2023-03-27T11:55:05.375Z,1.70
2023-03-27T11:55:22.370Z,1.60
2023-03-27T11:56:28.735Z,1.70
2023-03-27T11:58:42.267Z,1.70
2023-03-27T11:58:44.927Z,1.70
2023-03-27T11:59:44.812Z,1.70
2023-03-27T12:00:44.477Z,1.80
2023-03-27T12:01:45.197Z,1.90
2023-03-27T12:04:04.016Z,1.70
2023-03-27T12:04:07.121Z,1.70
2023-03-27T12:05:07.086Z,1.70
2023-03-27T12:06:11.055Z,1.60
2023-03-27T12:07:11.887Z,1.60
2023-03-27T12:11:01.999Z,1.70
2023-03-27T12:18:07.156Z,1.90
2023-03-27T12:19:13.740Z,1.60
2023-03-27T12:21:31.882Z,1.80
2023-03-27T12:24:19.250Z,1.70
2023-03-27T12:24:24.272Z,1.60
2023-03-27T12:26:46.759Z,1.70
2023-03-27T12:26:49.489Z,1.60
2023-03-27T12:27:50.729Z,1.80
2023-03-27T12:30:10.320Z,1.80
2023-03-27T12:30:11.949Z,1.80
2023-03-27T12:31:12.002Z,1.90
2023-03-27T12:32:11.943Z,2.40
2023-03-27T12:33:12.013Z,2.30
2023-03-27T12:34:11.969Z,2.60
2023-03-27T12:35:11.957Z,2.00
2023-03-27T12:36:11.881Z,1.80
2023-03-27T12:37:11.926Z,1.90
2023-03-27T12:38:11.967Z,1.90
2023-03-27T12:39:11.848Z,2.00
2023-03-27T12:40:11.989Z,1.50
2023-03-27T12:41:11.812Z,1.60
2023-03-27T12:42:11.827Z,1.80
2023-03-27T12:43:11.892Z,2.30
2023-03-27T12:44:11.775Z,1.50
2023-03-27T12:45:11.988Z,1.70
2023-03-27T12:46:11.881Z,1.80
2023-03-27T12:47:11.936Z,1.70
2023-03-27T12:48:11.836Z,1.40
2023-03-27T12:49:11.858Z,1.90
2023-03-27T12:51:35.937Z,1.50
2023-03-27T13:03:00.517Z,1.80
2023-03-27T13:04:41.055Z,1.70
2023-03-27T13:04:45.297Z,2.10
2023-03-27T13:07:39.928Z,1.80
2023-03-27T13:10:40.341Z,1.60
2023-03-27T13:16:54.083Z,1.70
2023-03-27T13:17:18.052Z,1.60
2023-03-27T13:18:17.899Z,1.50
2023-03-27T13:19:18.714Z,1.80
2023-03-27T13:21:47.680Z,1.70
2023-03-27T13:24:11.100Z,1.70
2023-03-27T13:25:35.593Z,1.60
2023-03-27T13:25:37.397Z,1.80
2023-03-27T13:27:00.556Z,1.60
2023-03-27T13:29:02.088Z,1.60
2023-03-27T13:29:04.231Z,1.50
2023-03-27T13:30:14.263Z,1.60
2023-03-27T13:31:04.876Z,1.60
2023-03-27T13:32:03.817Z,1.60
2023-03-27T13:33:04.564Z,2.20
2023-03-27T13:34:03.787Z,1.80
2023-03-27T13:35:03.994Z,1.80
2023-03-27T13:36:04.585Z,1.60
2023-03-27T13:39:36.352Z,1.60
2023-03-27T13:41:46.129Z,1.80
2023-03-27T13:41:47.698Z,1.60
2023-03-27T13:42:47.824Z,1.70
2023-03-27T13:43:47.789Z,2.00
2023-03-27T13:44:47.767Z,1.80
2023-03-27T13:45:47.824Z,2.00
2023-03-27T13:46:47.832Z,1.80
2023-03-27T13:47:47.951Z,1.70
2023-03-27T13:48:48.171Z,2.00
2023-03-27T13:49:47.738Z,1.70
2023-03-27T13:50:48.230Z,2.00
2023-03-27T13:51:47.683Z,1.90
2023-03-27T13:52:47.975Z,1.90
2023-03-27T13:53:47.674Z,1.90
2023-03-27T13:54:47.648Z,1.50
2023-03-27T13:55:47.687Z,1.50
2023-03-27T13:56:47.596Z,1.60
2023-03-27T13:57:47.513Z,1.70
2023-03-27T13:58:47.480Z,1.90
2023-03-27T13:59:47.495Z,1.90
2023-03-27T14:00:47.509Z,2.00
2023-03-27T14:01:47.570Z,1.90
2023-03-27T14:02:48.291Z,2.30
2023-03-27T14:03:48.673Z,2.40
2023-03-27T14:04:47.811Z,1.90
2023-03-27T14:05:47.554Z,2.00
2023-03-27T14:06:47.542Z,1.90
2023-03-27T14:07:47.437Z,1.90